createdAt,value
2019-02-28T00:01:59.014Z,48.17
2019-02-28T00:04:05.466Z,51.73
2019-02-28T00:06:12.681Z,50.90
2019-02-28T00:08:17.877Z,50.43
2019-02-28T00:10:23.134Z,40.97
2019-02-28T00:12:27.913Z,44.33
2019-02-28T00:14:33.354Z,48.43
2019-02-28T00:16:38.492Z,50.67
2019-02-28T00:18:43.258Z,47.23
2019-02-28T00:20:48.546Z,45.67
2019-02-28T00:22:53.296Z,46.73
2019-02-28T00:25:01.206Z,51.90
2019-02-28T00:27:04.923Z,47.67
2019-02-28T00:29:09.657Z,52.30
2019-02-28T00:31:15.365Z,53.60
2019-02-28T00:33:20.299Z,49.13
2019-02-28T00:35:25.036Z,46.47
2019-02-28T00:37:33.257Z,49.50
2019-02-28T00:39:38.381Z,48.83
2019-02-28T00:41:44.490Z,51.40
2019-02-28T00:43:49.603Z,58.57
2019-02-28T00:45:54.330Z,53.03
2019-02-28T00:47:59.116Z,47.20
2019-02-28T00:50:04.202Z,44.50
2019-02-28T00:52:08.949Z,54.27
2019-02-28T00:54:13.799Z,50.97
2019-02-28T00:56:18.569Z,56.50
2019-02-28T00:58:28.370Z,53.73
2019-02-28T01:00:29.964Z,61.17
2019-02-28T01:02:34.676Z,62.13
2019-02-28T01:04:39.452Z,51.53
2019-02-28T01:06:44.381Z,63.77
2019-02-28T01:09:10.866Z,58.50
2019-02-28T01:11:16.104Z,61.97
2019-02-28T01:13:21.965Z,56.87
2019-02-28T01:15:27.506Z,55.17
2019-02-28T01:17:32.626Z,48.47
2019-02-28T01:19:41.181Z,56.40
2019-02-28T01:21:45.326Z,61.97
2019-02-28T01:23:50.525Z,52.50
2019-02-28T01:25:55.634Z,56.27
2019-02-28T01:28:00.416Z,56.53
2019-02-28T01:30:06.641Z,59.80
2019-02-28T01:32:15.486Z,52.77
2019-02-28T01:34:18.792Z,54.03
2019-02-28T01:36:23.990Z,50.03
2019-02-28T01:38:28.775Z,60.13
2019-02-28T01:40:35.217Z,51.03
2019-02-28T01:42:40.457Z,54.30
2019-02-28T01:44:45.296Z,54.93
2019-02-28T01:46:50.648Z,53.17
2019-02-28T01:48:55.415Z,57.57
2019-02-28T01:51:01.600Z,54.80
2019-02-28T01:53:06.596Z,67.03
2019-02-28T01:55:12.256Z,59.67
2019-02-28T01:57:17.739Z,61.90
2019-02-28T01:59:23.022Z,55.87
2019-02-28T02:01:28.484Z,53.93
2019-02-28T02:03:34.725Z,55.53
2019-02-28T02:05:55.451Z,60.30
2019-02-28T02:08:09.715Z,54.67
2019-02-28T02:10:54.897Z,54.47
2019-02-28T02:13:11.599Z,58.57
2019-02-28T02:15:21.487Z,63.63
2019-02-28T02:17:27.044Z,54.40
2019-02-28T02:19:31.891Z,51.43
2019-02-28T02:21:36.688Z,54.87
2019-02-28T02:23:41.587Z,57.77
2019-02-28T02:25:46.391Z,60.40
2019-02-28T02:27:53.338Z,53.30
2019-02-28T02:29:57.689Z,56.63
2019-02-28T02:32:02.861Z,50.90
2019-02-28T02:34:08.206Z,63.87
2019-02-28T02:36:16.356Z,53.23
2019-02-28T02:38:19.612Z,61.17
2019-02-28T02:40:24.386Z,67.47
2019-02-28T02:42:29.448Z,72.80
2019-02-28T02:44:34.228Z,54.40
2019-02-28T02:46:39.054Z,63.80
2019-02-28T02:48:43.901Z,55.13
2019-02-28T02:50:48.757Z,60.50
2019-02-28T02:52:53.717Z,59.60
2019-02-28T02:54:58.501Z,58.23
2019-02-28T02:57:03.671Z,54.87
2019-02-28T02:59:08.556Z,67.67
2019-02-28T03:01:13.755Z,65.00
2019-02-28T03:03:18.563Z,65.17
2019-02-28T03:05:23.367Z,61.40
2019-02-28T03:07:28.385Z,68.47
2019-02-28T03:09:33.631Z,67.73
2019-02-28T03:11:38.725Z,66.20
2019-02-28T03:13:44.282Z,61.10
2019-02-28T03:15:49.294Z,65.63
2019-02-28T03:17:54.290Z,64.97
2019-02-28T03:19:59.279Z,63.93
2019-02-28T03:22:04.419Z,55.40
2019-02-28T03:24:14.554Z,73.70
2019-02-28T03:26:15.964Z,61.47
2019-02-28T03:28:20.909Z,70.53
2019-02-28T03:30:31.093Z,59.57
2019-02-28T03:32:39.620Z,66.10
2019-02-28T03:34:39.309Z,70.20
2019-02-28T03:36:51.037Z,64.20
2019-02-28T03:38:50.957Z,80.70
2019-02-28T03:40:56.437Z,67.97
2019-02-28T03:43:20.470Z,66.67
2019-02-28T03:45:29.939Z,77.73
2019-02-28T03:47:32.044Z,71.80
2019-02-28T03:49:37.216Z,68.80
2019-02-28T03:51:41.982Z,68.50
2019-02-28T03:53:46.804Z,68.83
2019-02-28T03:55:52.315Z,67.87
2019-02-28T03:58:04.382Z,72.97
2019-02-28T04:00:03.604Z,66.67
2019-02-28T04:02:08.573Z,78.60
2019-02-28T04:04:13.910Z,81.43
2019-02-28T04:06:18.728Z,79.13
2019-02-28T04:08:29.401Z,80.80
2019-02-28T04:10:30.393Z,80.07
2019-02-28T04:12:35.204Z,80.77
2019-02-28T04:14:40.873Z,69.63
2019-02-28T04:16:52.706Z,83.80
2019-02-28T04:18:52.264Z,83.77
2019-02-28T04:20:57.347Z,80.70
2019-02-28T04:23:02.506Z,90.80
2019-02-28T04:25:07.423Z,90.90
2019-02-28T04:27:12.787Z,97.50
2019-02-28T04:29:18.024Z,93.67
2019-02-28T04:31:23.650Z,89.37
2019-02-28T04:33:28.664Z,93.73
2019-02-28T04:35:33.726Z,86.10
2019-02-28T04:37:44.889Z,94.90
2019-02-28T04:39:45.841Z,90.97
2019-02-28T04:41:50.755Z,94.00
2019-02-28T04:43:55.562Z,105.80
2019-02-28T04:46:00.548Z,94.60
2019-02-28T04:48:05.671Z,94.13
2019-02-28T04:50:10.796Z,95.50
2019-02-28T04:52:15.967Z,91.80
2019-02-28T04:54:20.691Z,92.30
2019-02-28T04:56:25.530Z,103.10
2019-02-28T04:58:33.486Z,96.97
2019-02-28T05:00:38.883Z,95.37
2019-02-28T05:02:44.145Z,90.07
2019-02-28T05:04:49.032Z,91.77
2019-02-28T05:06:55.305Z,95.87
2019-02-28T05:09:00.400Z,93.17
2019-02-28T05:11:05.267Z,98.40
2019-02-28T05:13:11.449Z,94.23
2019-02-28T05:15:16.993Z,99.00
2019-02-28T05:17:22.292Z,105.00
2019-02-28T05:19:28.167Z,97.33
2019-02-28T05:21:53.543Z,95.67
2019-02-28T05:23:58.904Z,97.93
2019-02-28T05:26:03.655Z,99.37
2019-02-28T05:28:08.425Z,98.77
2019-02-28T05:30:17.901Z,95.43
2019-02-28T05:32:23.797Z,98.90
2019-02-28T05:34:28.975Z,104.27
2019-02-28T05:36:34.567Z,98.60
2019-02-28T05:38:40.535Z,95.97
2019-02-28T05:40:45.320Z,98.57
2019-02-28T05:42:50.383Z,101.63
2019-02-28T05:44:55.095Z,94.93
2019-02-28T05:47:00.171Z,111.87
2019-02-28T05:49:08.797Z,121.10
2019-02-28T05:51:12.241Z,104.03
2019-02-28T05:53:17.060Z,111.17
2019-02-28T05:55:25.683Z,106.87
2019-02-28T05:57:28.294Z,117.23
2019-02-28T05:59:33.083Z,119.30
2019-02-28T06:01:37.873Z,119.83
2019-02-28T06:03:42.745Z,107.90
2019-02-28T06:05:47.936Z,107.07
2019-02-28T06:07:53.766Z,106.27
2019-02-28T06:10:01.003Z,115.30
2019-02-28T06:12:06.611Z,112.03
2019-02-28T06:14:12.335Z,115.30
2019-02-28T06:16:17.860Z,115.90
2019-02-28T06:18:22.909Z,115.40
2019-02-28T06:20:27.943Z,106.90
2019-02-28T06:22:36.188Z,109.43
2019-02-28T06:24:40.032Z,113.13
2019-02-28T06:26:48.056Z,109.73
2019-02-28T06:28:52.889Z,125.37
2019-02-28T06:31:00.252Z,105.17
2019-02-28T06:33:08.511Z,101.33
2019-02-28T06:35:16.470Z,109.37
2019-02-28T06:37:20.073Z,108.57
2019-02-28T06:39:26.836Z,106.10
2019-02-28T06:41:32.234Z,111.10
2019-02-28T06:43:36.999Z,100.10
2019-02-28T06:45:41.807Z,106.00
2019-02-28T06:47:49.701Z,101.23
2019-02-28T06:49:53.366Z,98.63
2019-02-28T06:51:58.633Z,97.20
2019-02-28T06:54:04.373Z,97.77
2019-02-28T06:56:10.901Z,88.23
2019-02-28T06:58:26.581Z,97.20
2019-02-28T07:01:00.925Z,105.63
2019-02-28T07:03:06.066Z,101.40
2019-02-28T07:05:11.229Z,91.90
2019-02-28T07:07:16.258Z,90.17
2019-02-28T07:09:21.776Z,90.77
2019-02-28T07:11:27.305Z,87.53
2019-02-28T07:13:40.191Z,88.43
2019-02-28T07:15:59.080Z,92.87
2019-02-28T07:18:02.835Z,95.20
2019-02-28T07:20:13.397Z,84.47
2019-02-28T07:28:30.357Z,76.03
2019-02-28T07:30:37.822Z,93.27
2019-02-28T07:32:42.614Z,82.30
2019-02-28T07:34:47.631Z,84.60
2019-02-28T07:36:52.762Z,83.53
2019-02-28T07:38:57.886Z,75.10
2019-02-28T07:41:03.478Z,73.50
2019-02-28T07:43:12.009Z,70.60
2019-02-28T07:45:14.827Z,74.00
2019-02-28T07:47:19.581Z,67.90
2019-02-28T07:49:25.932Z,67.27
2019-02-28T07:51:30.958Z,76.37
2019-02-28T07:53:35.742Z,65.93
2019-02-28T07:55:40.842Z,79.97
2019-02-28T07:57:51.175Z,66.23
2019-02-28T07:59:52.300Z,70.87
2019-02-28T08:01:59.939Z,68.73
2019-02-28T08:04:04.640Z,67.77
2019-02-28T08:06:09.738Z,74.53
2019-02-28T08:08:14.522Z,60.70
2019-02-28T08:10:20.036Z,65.83
2019-02-28T08:12:27.436Z,62.73
2019-02-28T08:14:31.857Z,71.00
2019-02-28T08:16:37.018Z,65.33
2019-02-28T08:18:41.864Z,71.10
2019-02-28T08:20:46.698Z,61.17
2019-02-28T08:22:52.116Z,67.90
2019-02-28T08:24:56.945Z,70.40
2019-02-28T08:27:02.682Z,65.33
2019-02-28T08:29:09.182Z,68.73
2019-02-28T08:31:13.965Z,58.23
2019-02-28T08:33:18.751Z,59.10
2019-02-28T08:35:23.952Z,69.80
2019-02-28T08:37:28.719Z,61.40
2019-02-28T08:39:33.510Z,60.60
2019-02-28T08:41:38.328Z,65.80
2019-02-28T08:43:44.627Z,77.00
2019-02-28T08:45:50.339Z,61.87
2019-02-28T08:47:56.766Z,57.87
2019-02-28T08:50:01.778Z,60.30
2019-02-28T08:52:06.724Z,67.33
2019-02-28T08:54:11.576Z,78.00
2019-02-28T08:56:16.740Z,77.87
2019-02-28T08:58:21.900Z,81.93
2019-02-28T09:00:31.278Z,71.10
2019-02-28T09:02:33.767Z,73.23
2019-02-28T09:04:41.513Z,71.67
2019-02-28T09:06:45.644Z,77.03
2019-02-28T09:08:50.812Z,80.33
2019-02-28T09:10:55.657Z,86.07
2019-02-28T09:13:00.460Z,74.63
2019-02-28T09:15:05.972Z,73.80
2019-02-28T09:17:10.791Z,71.43
2019-02-28T09:19:15.614Z,71.37
2019-02-28T09:21:20.395Z,71.63
2019-02-28T09:23:25.213Z,76.90
2019-02-28T09:25:30.149Z,66.80
2019-02-28T09:27:35.268Z,67.80
2019-02-28T09:29:41.409Z,75.17
2019-02-28T09:31:46.204Z,73.10
2019-02-28T09:34:36.803Z,76.50
2019-02-28T09:36:44.154Z,69.73
2019-02-28T09:38:56.873Z,73.27
2019-02-28T09:40:55.639Z,70.33
2019-02-28T09:43:00.773Z,64.00
2019-02-28T09:45:07.642Z,67.67
2019-02-28T09:48:18.193Z,67.60
2019-02-28T10:03:56.448Z,69.57
2019-02-28T10:06:28.146Z,57.47
2019-02-28T10:11:41.075Z,63.93
2019-02-28T10:13:46.126Z,60.17
2019-02-28T10:15:50.865Z,71.50
2019-02-28T10:17:55.649Z,90.50
2019-02-28T10:20:26.277Z,95.13
2019-02-28T10:22:57.321Z,106.93
2019-02-28T10:25:43.328Z,86.10
2019-02-28T10:28:02.634Z,70.40
2019-02-28T10:30:41.855Z,60.07
2019-02-28T10:32:47.847Z,74.30
2019-02-28T10:34:52.701Z,64.80
2019-02-28T10:36:57.711Z,68.67
2019-02-28T10:39:02.821Z,69.73
2019-02-28T10:41:07.770Z,74.53
2019-02-28T10:43:15.617Z,78.83
2019-02-28T10:45:20.028Z,82.30
2019-02-28T10:47:28.143Z,76.30
2019-02-28T10:49:31.301Z,102.63
2019-02-28T10:51:36.524Z,98.20
2019-02-28T10:53:41.684Z,128.80
2019-02-28T10:55:47.055Z,92.53
2019-02-28T10:57:52.606Z,75.80
2019-02-28T10:59:58.172Z,79.37
2019-02-28T11:02:04.624Z,83.97
2019-02-28T11:04:09.748Z,76.23
2019-02-28T11:06:14.625Z,92.57
2019-02-28T11:08:19.464Z,81.07
2019-02-28T11:10:32.107Z,83.00
2019-02-28T11:12:35.784Z,78.70
2019-02-28T11:14:40.500Z,81.73
2019-02-28T11:16:45.403Z,77.10
2019-02-28T11:18:50.140Z,131.17
2019-02-28T11:20:58.063Z,204.80
2019-02-28T11:23:01.370Z,127.63
2019-02-28T11:25:07.956Z,88.93
2019-02-28T11:27:13.212Z,83.00
2019-02-28T11:29:18.022Z,88.67
2019-02-28T11:32:29.989Z,77.10
2019-02-28T11:35:51.037Z,80.67
2019-02-28T11:38:21.701Z,75.67
2019-02-28T11:40:28.984Z,80.73
2019-02-28T11:42:34.293Z,69.83
2019-02-28T11:44:39.273Z,86.60
2019-02-28T11:46:44.714Z,69.90
2019-02-28T11:48:51.058Z,73.67
2019-02-28T11:50:58.227Z,80.07
2019-02-28T11:53:05.878Z,76.87
2019-02-28T11:55:23.087Z,81.93
2019-02-28T11:57:28.056Z,80.70
2019-02-28T11:59:33.330Z,73.73
2019-02-28T12:01:38.806Z,74.83
2019-02-28T12:03:43.939Z,93.63
2019-02-28T12:05:50.637Z,108.43
2019-02-28T12:07:56.159Z,97.83
2019-02-28T12:10:00.904Z,71.30
2019-02-28T12:12:07.250Z,72.53
2019-02-28T12:14:35.762Z,68.93
2019-02-28T12:16:40.467Z,65.60
2019-02-28T12:18:45.255Z,64.13
2019-02-28T12:20:50.480Z,70.73
2019-02-28T12:22:55.439Z,62.77
2019-02-28T12:25:00.278Z,60.47
2019-02-28T12:27:05.052Z,70.03
2019-02-28T12:29:12.878Z,96.57
2019-02-28T12:31:16.499Z,81.10
2019-02-28T12:33:23.381Z,78.30
2019-02-28T12:35:28.668Z,61.50
2019-02-28T12:37:36.636Z,71.23
2019-02-28T12:39:41.479Z,74.77
2019-02-28T12:41:46.670Z,79.00
2019-02-28T12:43:51.374Z,74.73
2019-02-28T12:45:56.779Z,71.50
2019-02-28T12:48:02.555Z,62.27
2019-02-28T12:50:08.206Z,76.87
2019-02-28T12:52:14.587Z,67.47
2019-02-28T12:54:22.424Z,73.87
2019-02-28T12:56:27.483Z,78.10
2019-02-28T12:58:38.837Z,75.17
2019-02-28T13:00:39.021Z,77.07
2019-02-28T13:02:44.478Z,84.57
2019-02-28T13:04:49.295Z,81.57
2019-02-28T13:06:55.611Z,78.57
2019-02-28T13:09:00.412Z,88.03
2019-02-28T13:11:05.322Z,88.43
2019-02-28T13:13:10.478Z,80.53
2019-02-28T13:15:15.992Z,89.97
2019-02-28T13:17:28.271Z,87.90
2019-02-28T13:19:53.281Z,96.37
2019-02-28T13:21:58.646Z,168.50
2019-02-28T13:24:06.067Z,139.67
2019-02-28T13:26:09.891Z,92.93
2019-02-28T13:28:18.136Z,104.30
2019-02-28T13:30:25.111Z,106.67
2019-02-28T13:32:33.770Z,99.93
2019-02-28T13:34:40.582Z,141.07
2019-02-28T13:36:46.498Z,131.33
2019-02-28T13:38:54.668Z,134.23
2019-02-28T13:40:57.875Z,131.53
2019-02-28T13:43:04.937Z,113.50
2019-02-28T13:45:14.738Z,95.20
2019-02-28T13:47:19.990Z,103.23
2019-02-28T13:49:33.228Z,97.97
2019-02-28T13:51:42.006Z,80.03
2019-02-28T13:53:45.635Z,78.03
2019-02-28T13:55:52.655Z,88.17
2019-02-28T13:58:00.467Z,76.70
2019-02-28T14:00:08.997Z,93.30
2019-02-28T14:02:13.983Z,75.40
2019-02-28T14:04:24.820Z,88.10
2019-02-28T14:06:25.223Z,69.23
2019-02-28T14:08:30.406Z,65.57
2019-02-28T14:10:35.140Z,71.63
2019-02-28T14:12:40.332Z,63.27
2019-02-28T14:14:45.107Z,67.37
2019-02-28T14:16:50.192Z,69.10
2019-02-28T14:18:55.072Z,69.50
2019-02-28T14:21:03.110Z,65.73
2019-02-28T14:23:06.522Z,55.13
2019-02-28T14:25:11.380Z,52.93
2019-02-28T14:27:16.183Z,52.17
2019-02-28T14:29:20.922Z,57.83
2019-02-28T14:31:25.674Z,55.70
2019-02-28T14:33:33.167Z,52.60
2019-02-28T14:35:38.913Z,49.30
2019-02-28T14:37:43.892Z,48.07
2019-02-28T14:39:48.683Z,51.20
2019-02-28T14:41:53.472Z,48.40
2019-02-28T14:43:58.292Z,50.00
2019-02-28T14:46:03.007Z,46.07
2019-02-28T14:48:08.985Z,37.10
2019-02-28T14:50:15.552Z,47.27
2019-02-28T14:52:21.409Z,51.80
2019-02-28T14:54:26.544Z,47.50
2019-02-28T14:56:31.557Z,40.33
2019-02-28T14:58:36.767Z,47.23
2019-02-28T15:00:42.422Z,67.67
2019-02-28T15:02:50.690Z,75.30
2019-02-28T15:04:56.316Z,49.90
2019-02-28T15:07:03.019Z,43.27
2019-02-28T15:09:16.144Z,44.47
2019-02-28T15:11:20.917Z,47.33
2019-02-28T15:13:25.932Z,49.97
2019-02-28T15:15:30.720Z,53.30
2019-02-28T15:17:38.699Z,43.60
2019-02-28T15:19:44.173Z,40.73
2019-02-28T15:21:49.390Z,36.13
2019-02-28T15:23:54.288Z,55.33
2019-02-28T15:25:59.505Z,44.33
2019-02-28T15:28:10.588Z,51.30
2019-02-28T15:30:24.127Z,42.63
2019-02-28T15:32:37.975Z,44.73
2019-02-28T15:37:57.075Z,47.27
2019-02-28T15:40:21.562Z,47.13
2019-02-28T15:42:29.096Z,50.97
2019-02-28T15:47:19.401Z,55.67
2019-02-28T15:50:02.936Z,51.97
2019-02-28T15:55:12.992Z,42.13
2019-02-28T15:57:31.308Z,42.37
2019-02-28T16:02:29.123Z,46.53
2019-02-28T16:04:36.347Z,35.23
2019-02-28T16:06:44.924Z,30.80
2019-02-28T16:14:42.342Z,25.20
2019-02-28T16:17:26.683Z,30.13
2019-02-28T16:19:48.575Z,21.50
2019-02-28T16:22:08.162Z,91.97
2019-02-28T16:24:24.510Z,38.10
2019-02-28T16:26:47.730Z,31.13
2019-02-28T16:29:20.614Z,32.63
2019-02-28T16:31:21.718Z,23.27
2019-02-28T16:33:27.464Z,13.23
2019-02-28T16:35:34.549Z,26.73
2019-02-28T16:37:40.261Z,15.43
2019-02-28T16:39:44.994Z,20.17
2019-02-28T16:41:49.759Z,12.97
2019-02-28T16:43:55.531Z,13.10
2019-02-28T16:46:04.752Z,15.03
2019-02-28T16:48:09.545Z,22.07
2019-02-28T16:50:15.344Z,26.03
2019-02-28T16:52:21.021Z,27.97
2019-02-28T16:54:27.772Z,17.70
2019-02-28T16:56:32.367Z,26.23
2019-02-28T16:58:37.328Z,21.60
2019-02-28T17:00:42.450Z,25.60
2019-02-28T17:02:49.062Z,22.53
2019-02-28T17:04:53.811Z,16.20
2019-02-28T17:06:58.656Z,26.07
2019-02-28T17:09:13.962Z,21.73
2019-02-28T17:11:19.394Z,21.63
2019-02-28T17:13:46.108Z,21.57
2019-02-28T17:16:01.507Z,21.87
2019-02-28T17:18:08.124Z,28.33
2019-02-28T17:20:13.190Z,14.73
2019-02-28T17:22:17.960Z,24.67
2019-02-28T17:24:23.130Z,20.93
2019-02-28T17:27:06.124Z,14.70
2019-02-28T17:29:15.998Z,18.33
2019-02-28T17:31:41.145Z,22.33
2019-02-28T17:33:46.921Z,18.50
2019-02-28T17:35:52.755Z,18.70
2019-02-28T17:38:00.173Z,20.90
2019-02-28T17:40:04.694Z,24.83
2019-02-28T17:42:14.838Z,23.43
2019-02-28T17:45:24.336Z,17.63
2019-02-28T17:48:17.742Z,36.70
2019-02-28T17:50:46.133Z,22.67
2019-02-28T17:53:27.752Z,22.93
2019-02-28T17:56:03.922Z,14.70
2019-02-28T17:58:46.402Z,22.20
2019-02-28T18:44:14.411Z,14.70
2019-02-28T18:46:29.558Z,12.53
2019-02-28T18:48:35.819Z,20.00
2019-02-28T18:51:11.096Z,13.77
2019-02-28T18:53:46.347Z,17.60
2019-02-28T18:55:56.933Z,16.13
2019-02-28T19:01:08.377Z,15.83
2019-02-28T19:04:22.667Z,12.47
2019-02-28T19:06:57.528Z,15.20
2019-02-28T19:09:07.084Z,14.47
2019-02-28T19:11:16.468Z,17.70
2019-02-28T19:13:26.490Z,19.80
2019-02-28T19:15:31.709Z,15.67
2019-02-28T19:20:48.958Z,26.67
2019-02-28T19:23:42.211Z,13.80
2019-02-28T19:25:47.568Z,19.70
2019-02-28T19:27:52.873Z,21.30
2019-02-28T19:29:58.043Z,11.83
2019-02-28T19:32:09.291Z,16.40
2019-02-28T19:46:47.322Z,25.30
2019-02-28T19:54:26.726Z,16.07
2019-02-28T19:56:47.513Z,17.87
2019-02-28T19:59:42.066Z,28.97
2019-02-28T20:18:36.923Z,22.50
2019-02-28T20:20:41.295Z,18.40
2019-02-28T20:29:03.918Z,21.90
2019-02-28T20:31:12.426Z,18.93
2019-02-28T20:41:52.522Z,19.83
2019-02-28T20:44:19.370Z,23.20
2019-02-28T20:46:25.592Z,16.97
2019-02-28T20:48:42.318Z,22.67
2019-02-28T20:50:53.981Z,23.93
2019-02-28T20:53:02.404Z,21.20
2019-02-28T20:55:08.725Z,24.87
2019-02-28T20:57:14.153Z,20.50
2019-02-28T20:59:22.966Z,23.30
2019-02-28T21:01:28.668Z,23.90
2019-02-28T21:03:33.600Z,25.60
2019-02-28T21:05:38.855Z,23.00
2019-02-28T21:07:44.239Z,20.97
2019-02-28T21:09:49.675Z,26.00
2019-02-28T21:11:55.849Z,26.90
2019-02-28T21:14:00.893Z,27.40
2019-02-28T21:16:05.745Z,26.10
2019-02-28T21:18:13.619Z,26.53
2019-02-28T21:20:18.802Z,22.37
2019-02-28T21:22:24.117Z,26.73
2019-02-28T21:24:28.877Z,24.67
2019-02-28T21:26:34.237Z,26.23
2019-02-28T21:28:39.667Z,29.77
2019-02-28T21:30:44.831Z,31.93
2019-02-28T21:32:53.383Z,25.47
2019-02-28T21:34:58.757Z,32.10
2019-02-28T21:37:03.609Z,27.70
2019-02-28T21:39:16.011Z,28.37
2019-02-28T21:41:21.042Z,30.00
2019-02-28T21:43:29.065Z,30.00
2019-02-28T21:45:34.731Z,29.20
2019-02-28T21:47:41.563Z,29.20
2019-02-28T21:49:47.546Z,33.47
2019-02-28T21:51:52.589Z,30.70
2019-02-28T21:53:57.371Z,25.13
2019-02-28T21:56:02.191Z,29.13
2019-02-28T21:58:17.670Z,30.13
2019-02-28T22:00:35.248Z,28.23
2019-02-28T22:02:40.825Z,30.47
2019-02-28T22:04:46.482Z,27.90
2019-02-28T22:07:13.130Z,30.93
2019-02-28T22:09:18.137Z,27.50
2019-02-28T22:11:24.262Z,24.47
2019-02-28T22:13:30.415Z,28.73
2019-02-28T22:15:35.457Z,32.97
2019-02-28T22:17:41.180Z,27.07
2019-02-28T22:19:46.075Z,27.63
2019-02-28T22:21:51.453Z,25.00
2019-02-28T22:23:56.637Z,26.87
2019-02-28T22:26:04.627Z,25.77
2019-02-28T22:28:09.444Z,24.10
2019-02-28T22:30:38.928Z,33.60
2019-02-28T22:32:52.280Z,21.47
2019-02-28T22:42:21.743Z,22.97
2019-02-28T22:44:21.087Z,28.33
2019-02-28T22:46:31.603Z,22.20
2019-02-28T22:48:36.775Z,23.40
2019-02-28T22:50:41.916Z,21.20
2019-02-28T22:52:47.456Z,21.93
2019-02-28T22:54:55.049Z,22.73
2019-02-28T22:57:01.765Z,20.60
2019-02-28T22:59:07.056Z,19.57
2019-02-28T23:01:14.909Z,22.10
2019-02-28T23:03:20.114Z,25.30
2019-02-28T23:05:33.982Z,23.73
2019-02-28T23:07:57.479Z,23.13
2019-02-28T23:10:18.095Z,23.10
2019-02-28T23:12:24.116Z,20.40
2019-02-28T23:14:30.412Z,22.23
2019-02-28T23:16:36.368Z,19.90
2019-02-28T23:18:41.573Z,23.93
2019-02-28T23:20:55.994Z,18.57
2019-02-28T23:23:33.416Z,21.13
2019-02-28T23:25:45.369Z,25.07
2019-02-28T23:31:17.582Z,25.53
2019-02-28T23:33:29.830Z,29.47
2019-02-28T23:35:43.207Z,28.03
2019-02-28T23:37:55.820Z,27.63
2019-02-28T23:40:07.194Z,25.70
2019-02-28T23:42:15.532Z,34.30
2019-02-28T23:44:25.115Z,31.60
2019-02-28T23:46:36.527Z,21.57
2019-02-28T23:48:46.546Z,25.93
2019-02-28T23:51:14.640Z,24.57
2019-02-28T23:53:23.400Z,20.10
2019-02-28T23:55:29.346Z,22.53
2019-02-28T23:57:35.912Z,24.00
2019-02-28T23:59:45.480Z,19.33
